Time;durP1;ratioP1;P1;durP2;ratioP2;P2;SDS_P1;SDS_P2;PMS_P1;PMS_P2;Temp;Humidity;BMP_temperature;BMP_pressure;BME280_temperature;BME280_humidity;BME280_pressure;Samples;Min_cycle;Max_cycle;Signal;HPM_P1;HPM_P2
2021/06/09 00:01:53;;;;;;;9.02;3.62;;;;;;;18.42;58.53;101222.75;4424300;32;20634;-79
2021/06/09 00:04:19;;;;;;;9.30;4.10;;;;;;;18.32;59.04;101218.34;4421101;32;20105;-77
2021/06/09 00:06:45;;;;;;;11.20;3.70;;;;;;;18.34;58.92;101216.56;4424064;32;20045;-77
2021/06/09 00:09:10;;;;;;;9.18;4.22;;;;;;;18.30;59.04;101215.16;4423264;32;20460;-76
2021/06/09 00:11:36;;;;;;;8.45;4.37;;;;;;;18.24;59.34;101219.94;4420675;32;20373;-77
2021/06/09 00:14:04;;;;;;;8.35;4.95;;;;;;;18.20;59.30;101213.63;4420449;32;20068;-77
2021/06/09 00:16:31;;;;;;;9.13;4.12;;;;;;;18.12;59.83;101224.56;4421729;32;20142;-76
2021/06/09 00:18:57;;;;;;;6.35;4.20;;;;;;;17.98;60.29;101213.06;4415322;32;20058;-76
2021/06/09 00:21:23;;;;;;;7.72;4.62;;;;;;;17.99;60.19;101217.47;4420499;32;20134;-76
2021/06/09 00:23:49;;;;;;;8.18;4.30;;;;;;;17.89;60.64;101217.50;4421725;32;20046;-77
2021/06/09 00:26:17;;;;;;;7.62;4.57;;;;;;;17.81;60.82;101215.47;4416944;32;20077;-77
2021/06/09 00:28:45;;;;;;;7.95;4.95;;;;;;;17.79;61.08;101218.00;4419561;32;20062;-77
2021/06/09 00:31:12;;;;;;;8.00;4.57;;;;;;;17.74;61.29;101213.72;4418214;32;20093;-77
2021/06/09 00:33:37;;;;;;;5.78;4.05;;;;;;;17.64;61.38;101223.53;4419455;32;20082;-77
2021/06/09 00:36:04;;;;;;;6.55;4.12;;;;;;;17.65;61.28;101224.34;4420615;32;20081;-77
2021/06/09 00:38:30;;;;;;;6.87;4.00;;;;;;;17.55;61.46;101217.09;4418444;32;20112;-77
2021/06/09 00:40:57;;;;;;;9.25;3.53;;;;;;;17.56;61.41;101222.31;4414058;32;20473;-77
2021/06/09 00:43:27;;;;;;;5.68;3.85;;;;;;;17.53;61.39;101222.44;4419312;32;20095;-77
2021/06/09 00:46:10;;;;;;;5.80;3.78;;;;;;;17.39;61.88;101221.00;4419202;32;20037;-77
2021/06/09 00:48:39;;;;;;;7.78;3.78;;;;;;;17.37;61.71;101222.75;4424379;32;20082;-77
2021/06/09 00:51:12;;;;;;;7.55;3.53;;;;;;;17.32;61.84;101220.53;4415489;32;20120;-77
2021/06/09 00:53:40;;;;;;;5.30;3.60;;;;;;;17.27;61.88;101221.94;4423847;32;20056;-76
2021/06/09 00:56:10;;;;;;;5.30;3.65;;;;;;;17.17;61.97;101214.66;4419667;32;20065;-79
2021/06/09 00:58:37;;;;;;;7.35;3.60;;;;;;;17.22;61.86;101208.38;4418037;32;20076;-77
2021/06/09 01:01:05;;;;;;;7.75;3.92;;;;;;;17.20;61.81;101213.72;4417980;32;20033;-77
2021/06/09 01:03:32;;;;;;;7.43;3.60;;;;;;;17.14;62.10;101204.22;4419802;32;20385;-77
2021/06/09 01:05:58;;;;;;;6.20;3.80;;;;;;;17.08;62.16;101211.81;4421303;32;20046;-77
2021/06/09 01:08:24;;;;;;;4.55;3.62;;;;;;;17.00;62.26;101210.53;4422232;32;20482;-76
2021/06/09 01:10:51;;;;;;;7.78;3.60;;;;;;;17.05;62.18;101207.06;4420084;32;20068;-78
2021/06/09 01:13:20;;;;;;;6.28;3.50;;;;;;;17.06;62.11;101214.31;4422084;32;20070;-77
2021/06/09 01:15:47;;;;;;;7.37;3.67;;;;;;;17.02;62.46;101205.16;4419597;32;20070;-77
2021/06/09 01:18:12;;;;;;;8.00;4.20;;;;;;;17.02;62.46;101201.53;4418513;32;20080;-77
2021/06/09 01:20:38;;;;;;;4.12;3.72;;;;;;;16.93;62.84;101207.19;4419298;32;20568;-76
2021/06/09 01:23:05;;;;;;;5.85;3.90;;;;;;;16.83;63.02;101205.59;4417319;32;20045;-77
2021/06/09 01:25:32;;;;;;;7.60;3.78;;;;;;;16.86;62.73;101213.19;4420410;32;20081;-77
2021/06/09 01:27:58;;;;;;;8.45;3.60;;;;;;;16.94;62.59;101200.25;4422018;32;20041;-77
2021/06/09 01:30:24;;;;;;;8.25;4.37;;;;;;;16.90;62.65;101200.41;4418573;32;20419;-77
2021/06/09 01:32:51;;;;;;;6.72;4.15;;;;;;;16.84;62.92;101199.44;4413815;32;20093;-77
2021/06/09 01:35:17;;;;;;;7.30;3.85;;;;;;;16.88;62.73;101194.38;4413776;32;20029;-77
2021/06/09 01:37:46;;;;;;;9.98;3.75;;;;;;;16.74;63.48;101182.84;4420191;32;20060;-76
2021/06/09 01:40:17;;;;;;;6.03;4.05;;;;;;;16.75;63.47;101192.97;4419552;32;20033;-77
2021/06/09 01:42:44;;;;;;;7.95;4.22;;;;;;;16.72;63.75;101179.69;4417543;32;20520;-77
2021/06/09 01:45:13;;;;;;;6.40;3.80;;;;;;;16.62;64.16;101175.22;4420556;32;20123;-77
2021/06/09 01:47:39;;;;;;;9.77;4.12;;;;;;;16.62;63.85;101180.91;4416843;32;20034;-77
2021/06/09 01:50:09;;;;;;;7.68;4.32;;;;;;;16.51;64.35;101189.09;4416308;32;20128;-77
2021/06/09 01:52:35;;;;;;;8.70;4.35;;;;;;;16.52;64.19;101188.63;4415676;32;20013;-77
2021/06/09 01:55:04;;;;;;;7.18;3.90;;;;;;;16.52;64.38;101185.78;4416096;32;20073;-77
2021/06/09 01:57:29;;;;;;;7.37;4.30;;;;;;;16.50;64.59;101188.31;4418375;32;20143;-77
2021/06/09 01:59:55;;;;;;;7.60;4.25;;;;;;;16.48;64.39;101188.00;4423576;32;20064;-78
2021/06/09 02:02:22;;;;;;;7.43;4.12;;;;;;;16.42;64.90;101187.00;4423175;32;20073;-77
2021/06/09 02:04:47;;;;;;;5.75;4.45;;;;;;;16.45;64.74;101185.28;4409844;32;20078;-77
2021/06/09 02:07:13;;;;;;;7.40;4.00;;;;;;;16.45;64.69;101186.09;4418730;32;20153;-77
2021/06/09 02:09:40;;;;;;;9.88;4.35;;;;;;;16.48;64.76;101192.87;4418278;32;20073;-77
2021/06/09 02:12:07;;;;;;;9.85;3.95;;;;;;;16.42;65.08;101186.19;4417497;32;20344;-77
2021/06/09 02:14:35;;;;;;;8.98;4.15;;;;;;;16.51;64.95;101189.87;4420389;32;20064;-76
2021/06/09 02:17:02;;;;;;;6.25;3.78;;;;;;;16.43;65.21;101193.44;4417041;32;20069;-77
2021/06/09 02:19:29;;;;;;;7.55;4.20;;;;;;;16.41;65.07;101196.75;4418485;32;20065;-77
2021/06/09 02:21:55;;;;;;;8.90;4.30;;;;;;;16.49;64.78;101198.09;4412254;32;20402;-77
2021/06/09 02:24:20;;;;;;;6.30;3.90;;;;;;;16.46;65.00;101186.88;4422503;32;20100;-77
2021/06/09 02:26:48;;;;;;;8.43;4.43;;;;;;;16.48;64.76;101181.50;4417782;32;20057;-77
2021/06/09 02:29:14;;;;;;;9.43;4.60;;;;;;;16.48;64.84;101178.69;4417179;32;20052;-77
2021/06/09 02:31:45;;;;;;;4.85;3.72;;;;;;;16.51;64.87;101178.50;4416169;32;20108;-77
2021/06/09 02:34:15;;;;;;;7.15;4.15;;;;;;;16.54;64.76;101188.16;4416327;32;20073;-77
2021/06/09 02:36:42;;;;;;;5.87;4.50;;;;;;;16.55;64.52;101184.84;4409748;32;20050;-77
2021/06/09 02:39:08;;;;;;;7.60;4.43;;;;;;;16.56;64.39;101183.59;4419304;32;20038;-77
2021/06/09 02:41:34;;;;;;;10.43;4.57;;;;;;;16.53;64.53;101176.00;4420860;32;20389;-77
2021/06/09 02:44:00;;;;;;;11.88;4.53;;;;;;;16.61;64.28;101171.63;4418861;32;20097;-77
2021/06/09 02:46:31;;;;;;;7.03;4.28;;;;;;;16.49;64.92;101177.41;4422822;32;20394;-77
2021/06/09 02:49:01;;;;;;;13.88;5.07;;;;;;;16.52;64.97;101176.47;4417919;32;20118;-77
2021/06/09 02:51:35;;;;;;;7.75;4.40;;;;;;;16.56;64.56;101171.41;4415396;32;20584;-77
2021/06/09 03:02:06;;;;;;;8.45;4.45;;;;;;;16.93;64.47;101159.66;4433918;31;680783;-76
2021/06/09 03:10:27;;;;;;;9.98;4.90;;;;;;;16.99;63.56;101165.50;4431946;31;681052;-76
2021/06/09 03:13:03;;;;;;;7.25;4.22;;;;;;;16.99;63.56;101165.50;4453404;32;20132;-76
2021/06/09 03:15:55;;;;;;;10.23;4.68;;;;;;;16.52;64.56;101159.41;4452048;32;20077;-76
2021/06/09 03:21:03;;;;;;;7.20;4.70;;;;;;;16.73;64.48;101155.69;4427195;31;677959;-77
2021/06/09 03:32:23;;;;;;;6.70;4.43;;;;;;;16.60;65.11;101152.19;4444000;31;672581;-76
2021/06/09 03:37:47;;;;;;;8.80;4.93;;;;;;;16.27;65.71;101145.44;4444711;31;679670;-76
2021/06/09 03:40:19;;;;;;;9.25;5.00;;;;;;;16.20;65.87;101143.66;4456730;32;20048;-76
2021/06/09 03:42:51;;;;;;;9.68;5.03;;;;;;;16.13;66.29;101148.84;4449733;32;20212;-76
2021/06/09 03:45:19;;;;;;;14.68;5.00;;;;;;;16.16;66.39;101145.84;4454863;32;20127;-76
2021/06/09 03:47:46;;;;;;;9.40;5.25;;;;;;;16.12;66.54;101142.37;4455889;32;20037;-76
2021/06/09 03:50:15;;;;;;;10.73;5.28;;;;;;;16.18;66.43;101139.72;4452700;32;20433;-77
2021/06/09 03:52:45;;;;;;;7.15;4.78;;;;;;;16.26;66.30;101136.09;4453230;32;20137;-77
2021/06/09 03:55:12;;;;;;;10.63;5.05;;;;;;;16.33;65.78;101133.00;4456201;32;20057;-77
2021/06/09 03:57:38;;;;;;;9.85;5.15;;;;;;;16.28;66.01;101124.28;4457284;32;20106;-77
2021/06/09 04:00:06;;;;;;;9.55;5.53;;;;;;;16.27;66.17;101117.03;4455530;32;20044;-77
2021/06/09 04:02:32;;;;;;;11.23;4.82;;;;;;;16.31;66.36;101114.81;4439944;32;20034;-77
2021/06/09 04:04:59;;;;;;;11.52;4.93;;;;;;;16.28;66.74;101116.56;4439688;32;20068;-77
2021/06/09 04:07:27;;;;;;;6.85;4.93;;;;;;;16.24;66.91;101115.91;4439443;32;20034;-78
2021/06/09 04:09:55;;;;;;;8.82;4.87;;;;;;;16.38;66.05;101120.22;4437447;32;20056;-78
2021/06/09 04:12:22;;;;;;;12.05;5.10;;;;;;;16.23;66.34;101133.44;4438435;32;20033;-77
2021/06/09 04:14:50;;;;;;;9.35;5.10;;;;;;;16.21;66.47;101138.78;4436335;32;20370;-77
2021/06/09 04:17:22;;;;;;;8.85;4.47;;;;;;;16.17;66.38;101138.13;4435130;32;20090;-77
2021/06/09 04:19:49;;;;;;;9.88;4.72;;;;;;;16.29;65.70;101140.06;4429553;32;20400;-77
2021/06/09 04:22:15;;;;;;;8.00;4.97;;;;;;;16.27;65.95;101134.87;4437779;32;20037;-77
2021/06/09 04:24:41;;;;;;;8.93;4.68;;;;;;;16.21;66.05;101127.41;4435576;32;20038;-77
2021/06/09 04:27:13;;;;;;;7.43;4.70;;;;;;;16.34;65.66;101130.91;4442757;32;20041;-78
2021/06/09 04:29:39;;;;;;;12.32;4.90;;;;;;;16.42;65.56;101132.22;4438172;32;20084;-77
2021/06/09 04:32:06;;;;;;;8.57;5.32;;;;;;;16.42;65.56;101135.88;4441158;32;20108;-77
2021/06/09 04:37:25;;;;;;;9.63;5.47;;;;;;;17.13;64.06;101131.56;4427628;31;700542;-77
2021/06/09 04:39:51;;;;;;;10.45;5.62;;;;;;;17.13;64.06;101131.56;4451234;32;20071;-76
2021/06/09 04:42:20;;;;;;;14.23;6.32;;;;;;;16.77;64.63;101140.06;4450540;32;20037;-76
2021/06/09 04:44:46;;;;;;;16.42;5.78;;;;;;;16.80;64.74;101127.75;4451732;32;21265;-76
2021/06/09 04:47:14;;;;;;;11.93;5.85;;;;;;;16.87;64.45;101132.31;4449930;32;20451;-76
2021/06/09 04:49:43;;;;;;;12.32;6.40;;;;;;;16.96;64.09;101135.97;4449711;32;20041;-78
2021/06/09 04:52:10;;;;;;;10.02;5.95;;;;;;;17.05;63.76;101129.50;4449641;32;20045;-78
2021/06/09 04:54:37;;;;;;;9.38;6.07;;;;;;;17.13;63.26;101130.75;4455988;32;20081;-76
2021/06/09 04:57:05;;;;;;;10.82;5.78;;;;;;;17.13;63.60;101128.72;4449537;32;20033;-76
2021/06/09 04:59:31;;;;;;;14.48;5.75;;;;;;;17.20;63.42;101128.41;4453122;32;20058;-76
2021/06/09 05:01:56;;;;;;;12.57;5.82;;;;;;;17.25;62.91;101132.66;4455375;32;20081;-76
2021/06/09 05:04:22;;;;;;;9.15;5.37;;;;;;;17.31;62.66;101128.69;4457715;32;20523;-76
2021/06/09 05:06:48;;;;;;;8.63;5.30;;;;;;;17.43;62.26;101136.28;4457494;32;20068;-77
2021/06/09 05:09:14;;;;;;;20.83;6.10;;;;;;;17.41;63.00;101127.44;4452283;32;20040;-77
2021/06/09 05:11:52;;;;;;;10.55;6.70;;;;;;;17.44;62.82;101129.34;4455247;32;20426;-76
2021/06/09 05:14:25;;;;;;;15.70;6.47;;;;;;;17.59;61.86;101127.44;4455607;32;20079;-77
2021/06/09 05:16:52;;;;;;;13.98;6.78;;;;;;;17.62;62.30;101128.53;4457658;32;20041;-76
2021/06/09 05:19:27;;;;;;;16.05;7.05;;;;;;;17.76;61.86;101120.09;4454635;32;20080;-77
2021/06/09 05:22:03;;;;;;;16.55;7.28;;;;;;;17.82;61.95;101120.22;4453476;32;20116;-76
2021/06/09 05:24:33;;;;;;;12.88;6.47;;;;;;;17.94;61.59;101133.47;4456100;32;20049;-77
2021/06/09 05:27:00;;;;;;;13.98;6.18;;;;;;;18.08;61.12;101129.97;4457630;32;20045;-77
2021/06/09 05:29:28;;;;;;;10.35;6.68;;;;;;;18.18;60.70;101131.50;4456289;32;20088;-77
2021/06/09 05:31:55;;;;;;;8.80;5.45;;;;;;;18.32;60.33;101133.66;4456555;32;20108;-77
2021/06/09 05:34:22;;;;;;;15.82;6.68;;;;;;;18.42;60.36;101131.56;4455052;32;20073;-77
2021/06/09 05:36:48;;;;;;;9.82;5.75;;;;;;;18.57;59.84;101123.88;4456597;32;20414;-76
2021/06/09 05:39:16;;;;;;;12.10;7.03;;;;;;;18.66;59.49;101123.81;4455662;32;20075;-77
2021/06/09 05:41:42;;;;;;;16.77;7.15;;;;;;;18.78;59.33;101131.34;4455264;32;20106;-77
2021/06/09 05:44:12;;;;;;;15.77;6.47;;;;;;;18.96;59.00;101131.22;4456415;32;20047;-76
2021/06/09 05:46:38;;;;;;;11.98;6.80;;;;;;;19.05;58.46;101131.91;4453238;32;20107;-77
2021/06/09 05:49:05;;;;;;;12.77;6.18;;;;;;;19.06;58.20;101118.44;4444978;32;20072;-77
2021/06/09 05:51:30;;;;;;;12.52;6.78;;;;;;;19.17;58.01;101130.06;4445405;32;20049;-77
2021/06/09 05:53:56;;;;;;;12.55;5.95;;;;;;;19.29;57.95;101132.69;4447310;32;20156;-77
2021/06/09 05:56:23;;;;;;;9.05;5.82;;;;;;;19.41;57.45;101130.84;4446926;32;20053;-77
2021/06/09 05:58:48;;;;;;;9.48;6.00;;;;;;;19.57;56.99;101127.50;4448095;32;20427;-77
2021/06/09 06:01:14;;;;;;;10.15;5.32;;;;;;;19.56;55.83;101128.78;4446669;32;20085;-77
2021/06/09 06:03:42;;;;;;;10.38;5.07;;;;;;;19.70;54.80;101116.59;4447578;32;20052;-76
2021/06/09 06:06:11;;;;;;;10.82;4.90;;;;;;;19.92;54.61;101121.91;4445543;32;20467;-78
2021/06/09 06:08:39;;;;;;;9.23;4.65;;;;;;;20.08;54.28;101122.16;4446551;32;20069;-77
2021/06/09 06:11:07;;;;;;;9.95;4.12;;;;;;;20.22;53.59;101115.66;4446587;32;20076;-77
2021/06/09 06:13:35;;;;;;;11.55;4.80;;;;;;;20.34;53.16;101111.69;4444162;32;20066;-78
2021/06/09 06:16:01;;;;;;;12.20;5.05;;;;;;;20.40;53.09;101115.41;4444992;32;20064;-78
2021/06/09 06:18:37;;;;;;;8.23;4.20;;;;;;;20.62;52.62;101115.72;4445656;32;20045;-77
2021/06/09 06:21:05;;;;;;;11.95;4.82;;;;;;;20.64;51.94;101113.16;4445020;32;20346;-77
2021/06/09 06:23:31;;;;;;;12.00;4.50;;;;;;;20.82;51.82;101114.94;4443898;32;20059;-78
2021/06/09 06:25:58;;;;;;;9.13;4.55;;;;;;;20.77;51.59;101115.69;4443307;32;20085;-78
2021/06/09 06:28:25;;;;;;;8.77;4.50;;;;;;;20.76;51.89;101123.47;4446892;32;20057;-78
2021/06/09 06:30:52;;;;;;;10.23;4.90;;;;;;;20.71;51.73;101118.44;4442145;32;20072;-77
2021/06/09 06:33:22;;;;;;;10.68;4.37;;;;;;;20.77;51.58;101121.41;4443304;32;20080;-77
2021/06/09 06:35:48;;;;;;;9.35;4.28;;;;;;;20.75;51.58;101124.75;4445093;32;20056;-77
2021/06/09 06:38:15;;;;;;;7.07;4.10;;;;;;;20.93;51.38;101115.09;4446939;32;20097;-78
2021/06/09 06:40:42;;;;;;;10.80;4.35;;;;;;;20.95;51.19;101116.19;4442893;32;20068;-78
2021/06/09 06:43:09;;;;;;;10.85;4.80;;;;;;;21.06;50.83;101121.28;4437522;32;20072;-78
2021/06/09 06:45:35;;;;;;;8.18;3.55;;;;;;;21.14;50.71;101116.69;4438492;32;20087;-75
2021/06/09 06:48:02;;;;;;;7.95;3.90;;;;;;;21.10;49.72;101121.84;4442773;32;20145;-77
2021/06/09 06:50:29;;;;;;;7.75;3.85;;;;;;;21.26;50.13;101121.28;4441181;32;20073;-76
2021/06/09 06:52:55;;;;;;;7.50;3.17;;;;;;;21.13;49.67;101117.97;4440214;32;20046;-77
2021/06/09 06:55:24;;;;;;;7.03;3.60;;;;;;;20.79;50.09;101127.41;4442379;32;20083;-77
2021/06/09 06:57:50;;;;;;;5.03;3.30;;;;;;;20.76;49.43;101120.59;4434785;32;20037;-77
2021/06/09 07:00:20;;;;;;;7.47;3.37;;;;;;;20.76;49.36;101122.69;4434250;32;20104;-76
2021/06/09 07:02:49;;;;;;;6.72;3.42;;;;;;;20.70;49.80;101128.31;4433021;32;20107;-75
2021/06/09 07:05:17;;;;;;;8.60;3.78;;;;;;;20.63;49.15;101125.09;4435072;32;20045;-75
2021/06/09 07:07:43;;;;;;;7.57;3.25;;;;;;;20.71;48.69;101132.75;4435680;32;20134;-75
2021/06/09 07:10:12;;;;;;;4.03;2.70;;;;;;;20.76;49.09;101129.19;4435832;32;21608;-75
2021/06/09 07:12:39;;;;;;;6.03;3.20;;;;;;;20.94;47.80;101125.25;4436244;32;20088;-75
2021/06/09 07:15:08;;;;;;;7.43;2.80;;;;;;;21.03;47.72;101130.88;4436914;32;20107;-76
2021/06/09 07:17:45;;;;;;;8.45;3.67;;;;;;;21.05;47.27;101128.28;4435018;32;20088;-76
2021/06/09 07:20:13;;;;;;;13.13;4.57;;;;;;;21.20;47.08;101131.87;4434934;32;20083;-74
2021/06/09 07:22:40;;;;;;;5.72;2.95;;;;;;;21.30;46.44;101142.63;4435492;32;20033;-77
2021/06/09 07:25:09;;;;;;;5.90;2.67;;;;;;;21.18;45.91;101146.69;4437450;32;20136;-74
2021/06/09 07:27:36;;;;;;;5.10;2.50;;;;;;;21.34;45.90;101137.50;4433159;32;20037;-74
2021/06/09 07:30:05;;;;;;;6.85;2.80;;;;;;;21.59;45.42;101128.13;4438033;32;20421;-75
2021/06/09 07:32:34;;;;;;;8.00;2.80;;;;;;;21.68;45.29;101135.75;4435715;32;20076;-77
2021/06/09 07:35:01;;;;;;;6.32;2.53;;;;;;;21.80;44.51;101130.94;4435885;32;20556;-76
2021/06/09 07:37:30;;;;;;;7.87;2.35;;;;;;;22.08;44.14;101124.16;4436228;32;20136;-76
2021/06/09 07:39:58;;;;;;;6.30;2.50;;;;;;;22.31;43.85;101133.72;4434907;32;20088;-75
2021/06/09 07:42:27;;;;;;;7.25;2.35;;;;;;;22.42;42.65;101136.66;4436883;32;20099;-78
2021/06/09 07:44:59;;;;;;;6.00;2.60;;;;;;;22.40;42.29;101136.41;4437065;32;20041;-78
2021/06/09 07:47:27;;;;;;;7.10;2.33;;;;;;;22.29;41.85;101139.97;4435039;32;20041;-79
2021/06/09 07:49:55;;;;;;;7.03;2.55;;;;;;;22.38;41.90;101133.25;4431402;32;20223;-76
2021/06/09 07:52:22;;;;;;;5.80;2.87;;;;;;;22.22;41.74;101128.19;4428849;32;20488;-73
2021/06/09 07:54:50;;;;;;;7.35;2.75;;;;;;;22.42;41.69;101136.66;4435536;32;20530;-75
2021/06/09 07:57:17;;;;;;;5.37;2.42;;;;;;;22.36;41.58;101139.50;4437000;32;20180;-73
2021/06/09 07:59:44;;;;;;;5.68;2.90;;;;;;;22.43;41.61;101149.72;4433328;32;20119;-73
2021/06/09 08:02:16;;;;;;;5.15;2.67;;;;;;;22.37;41.47;101146.03;4432312;32;20082;-73
2021/06/09 08:04:42;;;;;;;5.60;2.53;;;;;;;22.13;42.26;101143.50;4433025;32;20072;-73
2021/06/09 08:07:08;;;;;;;6.90;3.10;;;;;;;22.09;42.63;101147.88;4437031;32;20571;-73
2021/06/09 08:09:34;;;;;;;8.73;3.35;;;;;;;22.17;42.44;101144.03;4435405;32;20068;-74
2021/06/09 08:12:03;;;;;;;6.68;2.83;;;;;;;22.23;42.50;101142.00;4433322;32;20338;-74
2021/06/09 08:14:29;;;;;;;5.43;3.00;;;;;;;22.24;42.13;101131.34;4433433;32;20163;-75
2021/06/09 08:16:55;;;;;;;8.90;3.25;;;;;;;22.44;41.67;101137.72;4430616;32;20076;-74
2021/06/09 08:19:21;;;;;;;6.78;3.20;;;;;;;22.60;41.41;101136.28;4435330;32;20053;-75
2021/06/09 08:21:47;;;;;;;6.68;3.37;;;;;;;22.37;41.35;101138.19;4429915;32;20041;-75
2021/06/09 08:24:13;;;;;;;11.48;3.40;;;;;;;22.41;41.37;101133.00;4433783;32;20177;-73
2021/06/09 08:26:39;;;;;;;6.40;3.00;;;;;;;22.52;41.51;101127.38;4433060;32;20033;-74
2021/06/09 08:29:06;;;;;;;8.02;3.53;;;;;;;22.50;41.27;101126.31;4434161;32;20029;-75
2021/06/09 08:31:33;;;;;;;7.20;3.08;;;;;;;22.66;41.45;101126.41;4431737;32;20149;-75
2021/06/09 08:34:01;;;;;;;4.50;3.22;;;;;;;22.76;40.85;101121.22;4433447;32;20103;-74
2021/06/09 08:36:28;;;;;;;3.35;2.55;;;;;;;22.87;40.62;101115.56;4433737;32;20164;-74
2021/06/09 08:38:56;;;;;;;6.93;2.83;;;;;;;23.07;40.45;101121.16;4434436;32;20753;-74
2021/06/09 08:41:27;;;;;;;6.05;2.25;;;;;;;23.31;40.03;101116.53;4433179;32;20037;-75
2021/06/09 08:43:53;;;;;;;4.60;2.67;;;;;;;23.51;39.03;101118.44;4432831;32;20103;-73
2021/06/09 08:46:19;;;;;;;5.00;2.83;;;;;;;23.49;39.27;101121.03;4434464;32;20080;-74
2021/06/09 08:48:46;;;;;;;5.05;2.78;;;;;;;23.78;39.01;101114.81;4433180;32;20168;-75
2021/06/09 08:51:16;;;;;;;3.47;2.28;;;;;;;23.86;38.34;101118.72;4433931;32;20079;-74
2021/06/09 08:53:45;;;;;;;3.58;2.20;;;;;;;24.16;37.62;101121.87;4435015;32;20081;-73
2021/06/09 08:56:11;;;;;;;3.40;1.80;;;;;;;24.32;37.11;101118.19;4436804;32;20104;-76
2021/06/09 08:58:37;;;;;;;5.87;2.20;;;;;;;24.44;36.63;101111.91;4436608;32;20137;-73
2021/06/09 09:01:04;;;;;;;6.60;1.87;;;;;;;24.82;36.04;101113.16;4433836;32;20073;-74
2021/06/09 09:03:30;;;;;;;6.50;1.87;;;;;;;25.24;34.90;101113.50;4428858;32;20109;-73
2021/06/09 09:05:56;;;;;;;3.33;1.77;;;;;;;25.61;34.17;101112.25;4433389;32;20149;-75
2021/06/09 09:08:22;;;;;;;6.62;1.87;;;;;;;25.83;32.96;101115.75;4435172;32;20080;-76
2021/06/09 09:10:48;;;;;;;7.70;1.77;;;;;;;26.24;31.93;101104.16;4433821;32;20100;-76
2021/06/09 09:13:14;;;;;;;6.43;1.92;;;;;;;26.28;31.09;101119.06;4432204;32;20100;-74
2021/06/09 09:15:40;;;;;;;2.55;1.30;;;;;;;26.32;31.09;101120.31;4435203;32;20049;-74
2021/06/09 09:18:08;;;;;;;2.40;1.42;;;;;;;25.99;31.02;101114.87;4436238;32;20202;-74
2021/06/09 09:20:37;;;;;;;2.92;1.50;;;;;;;26.12;30.98;101125.75;4433767;32;20069;-75
2021/06/09 09:23:18;;;;;;;2.28;1.62;;;;;;;26.11;31.33;101121.31;4437220;32;20037;-75
2021/06/09 09:25:45;;;;;;;3.45;1.65;;;;;;;25.96;31.83;101118.81;4440037;32;20452;-75
2021/06/09 09:28:23;;;;;;;4.25;1.83;;;;;;;25.80;31.96;101122.56;4438655;32;20168;-75
2021/06/09 09:30:49;;;;;;;3.87;1.62;;;;;;;26.35;30.45;101119.25;4436295;32;20063;-76
2021/06/09 09:33:19;;;;;;;6.12;1.73;;;;;;;26.65;30.20;101128.69;4433248;32;20127;-74
2021/06/09 09:35:47;;;;;;;4.65;1.50;;;;;;;26.79;30.46;101129.59;4439133;32;20114;-73
2021/06/09 09:41:17;;;;;;;6.45;1.62;;;;;;;27.93;28.31;101122.00;4422450;32;668204;-74
2021/06/09 09:46:24;;;;;;;5.28;1.60;;;;;;;28.47;27.54;101128.97;4416128;31;672622;-74
2021/06/09 09:49:03;;;;;;;6.25;1.50;;;;;;;28.47;27.54;101128.97;4438875;32;20430;-78
2021/06/09 09:51:32;;;;;;;6.00;1.30;;;;;;;28.14;27.36;101120.06;4436774;32;20151;-78
2021/06/09 09:54:00;;;;;;;1.30;1.17;;;;;;;28.28;27.39;101128.22;4439233;32;20445;-80
2021/06/09 09:56:28;;;;;;;2.25;0.88;;;;;;;28.40;27.12;101129.59;4437187;32;20077;-79
2021/06/09 09:59:01;;;;;;;6.22;1.40;;;;;;;28.44;27.24;101118.44;4438990;32;20385;-78
2021/06/09 10:01:29;;;;;;;3.50;1.25;;;;;;;28.54;26.48;101118.84;4430495;32;20089;-75
2021/06/09 10:03:57;;;;;;;6.68;1.37;;;;;;;28.42;26.90;101117.44;4430658;32;20053;-77
2021/06/09 10:06:27;;;;;;;2.28;1.20;;;;;;;28.27;27.05;101123.78;4427050;32;21516;-78
2021/06/09 10:08:56;;;;;;;7.00;1.85;;;;;;;28.12;26.39;101122.72;4428132;32;20108;-77
2021/06/09 10:11:24;;;;;;;3.65;1.10;;;;;;;28.21;26.20;101107.84;4425618;32;20129;-76
2021/06/09 10:13:54;;;;;;;1.50;0.95;;;;;;;28.30;25.31;101111.09;4425133;32;20131;-75
2021/06/09 10:16:40;;;;;;;6.50;1.33;;;;;;;28.84;24.75;101125.09;4424320;32;20081;-74
2021/06/09 10:19:09;;;;;;;3.45;1.08;;;;;;;28.90;24.49;101108.37;4428850;32;20058;-75
2021/06/09 10:21:46;;;;;;;2.87;1.10;;;;;;;28.50;24.82;101109.72;4425367;32;20045;-75
2021/06/09 10:24:13;;;;;;;1.87;1.08;;;;;;;28.58;24.69;101108.50;4429269;32;20097;-78
2021/06/09 10:26:44;;;;;;;3.97;1.50;;;;;;;28.40;24.68;101105.63;4435240;32;20110;-74
2021/06/09 10:29:14;;;;;;;2.28;1.10;;;;;;;28.90;24.49;101111.28;4422112;32;20435;-73
2021/06/09 10:31:45;;;;;;;5.75;1.10;;;;;;;29.33;24.48;101105.13;4428173;32;20104;-73
2021/06/09 10:34:11;;;;;;;4.15;1.15;;;;;;;29.69;24.83;101094.56;4427531;32;20060;-73
2021/06/09 10:36:41;;;;;;;2.62;1.25;;;;;;;29.83;24.26;101107.63;4427477;32;20399;-74
2021/06/09 10:39:08;;;;;;;1.73;1.00;;;;;;;30.05;24.11;101101.28;4424840;32;20054;-74
2021/06/09 10:41:38;;;;;;;3.67;1.20;;;;;;;30.16;23.90;101101.75;4424741;32;20081;-74
2021/06/09 10:44:05;;;;;;;2.22;1.20;;;;;;;30.14;24.13;101103.69;4428700;32;20081;-74
2021/06/09 10:46:34;;;;;;;2.10;1.23;;;;;;;30.09;24.41;101110.41;4426068;32;20044;-74
2021/06/09 10:49:01;;;;;;;2.47;1.15;;;;;;;30.29;24.20;101106.75;4424279;32;20069;-74
2021/06/09 10:51:28;;;;;;;1.23;0.93;;;;;;;30.52;23.89;101108.47;4422377;32;20491;-74
2021/06/09 10:53:57;;;;;;;3.10;1.37;;;;;;;30.54;24.11;101108.72;4422830;32;20061;-74
2021/06/09 10:56:23;;;;;;;2.10;1.10;;;;;;;30.44;24.84;101098.94;4422691;32;20097;-74
2021/06/09 10:58:50;;;;;;;5.60;1.55;;;;;;;30.39;25.08;101105.69;4413237;32;20088;-73
2021/06/09 11:01:22;;;;;;;4.28;1.30;;;;;;;30.64;25.22;101098.13;4417731;32;20195;-73
2021/06/09 11:03:50;;;;;;;3.78;1.30;;;;;;;31.15;24.91;101101.16;4417113;32;20075;-75
2021/06/09 11:06:16;;;;;;;5.87;1.50;;;;;;;31.10;24.94;101092.59;4420111;32;20042;-77
2021/06/09 11:08:41;;;;;;;4.55;1.42;;;;;;;31.46;24.82;101094.13;4414391;32;20521;-77
2021/06/09 11:11:23;;;;;;;1.92;1.23;;;;;;;31.32;25.16;101086.12;4417481;32;20085;-77
2021/06/09 11:13:49;;;;;;;3.75;1.10;;;;;;;31.41;25.04;101089.25;4415085;32;20042;-76
2021/06/09 11:16:17;;;;;;;6.45;1.23;;;;;;;31.35;24.87;101093.72;4419407;32;20397;-74
2021/06/09 11:18:46;;;;;;;2.97;0.93;;;;;;;31.51;24.90;101090.28;4417047;32;20057;-80
2021/06/09 11:21:16;;;;;;;5.57;1.55;;;;;;;31.87;24.62;101088.03;4415238;32;20068;-77
2021/06/09 11:23:43;;;;;;;1.92;1.20;;;;;;;31.50;25.04;101099.59;4414756;32;20086;-73
2021/06/09 11:26:27;;;;;;;4.37;1.75;;;;;;;31.83;24.82;101084.75;4414387;32;20108;-74
2021/06/09 11:28:54;;;;;;;5.97;1.48;;;;;;;31.98;24.94;101089.81;4416751;32;20088;-74
2021/06/09 11:34:03;;;;;;;2.47;1.37;;;;;;;32.16;24.69;101088.66;4421090;31;671750;-76
2021/06/09 11:39:20;;;;;;;9.18;1.45;;;;;;;32.87;24.08;101084.53;4407589;32;1425753;-74
2021/06/09 11:41:48;;;;;;;2.37;1.85;;;;;;;32.87;24.08;101084.53;4440041;32;20531;-77
2021/06/09 11:50:28;;;;;;;2.30;1.20;;;;;;;32.96;24.28;101104.34;4416387;32;671286;-79
2021/06/09 11:52:57;;;;;;;3.72;1.35;;;;;;;32.96;24.28;101104.34;4430086;32;20453;-73
2021/06/09 11:55:25;;;;;;;1.27;1.17;;;;;;;31.98;25.28;101095.63;4412581;32;20069;-74
2021/06/09 11:58:12;;;;;;;1.45;1.30;;;;;;;32.34;24.78;101085.38;4427702;32;20324;-74
2021/06/09 12:01:03;;;;;;;1.98;1.50;;;;;;;32.24;25.03;101093.12;4426719;32;20049;-75
2021/06/09 12:03:29;;;;;;;2.50;1.35;;;;;;;31.88;25.84;101072.16;4428532;32;20105;-74
2021/06/09 12:06:11;;;;;;;3.45;1.30;;;;;;;31.53;26.38;101070.09;4428893;32;20118;-74
2021/06/09 12:08:37;;;;;;;6.55;1.40;;;;;;;32.34;25.60;101067.87;4426946;32;20076;-74
2021/06/09 12:11:03;;;;;;;7.62;1.90;;;;;;;32.63;25.40;101065.53;4427187;32;20127;-76
2021/06/09 12:13:28;;;;;;;3.25;1.33;;;;;;;31.60;26.86;101072.25;4426275;32;20667;-77
2021/06/09 12:18:40;;;;;;;5.45;1.20;;;;;;;32.84;25.78;101065.28;4419807;31;673344;-74
2021/06/09 12:21:09;;;;;;;3.62;1.40;;;;;;;32.84;25.78;101065.28;4440876;32;20072;-76